Time;durP1;ratioP1;P1;durP2;ratioP2;P2;SDS_P1;SDS_P2;PMS_P1;PMS_P2;Temp;Humidity;BMP_temperature;BMP_pressure;BME280_temperature;BME280_humidity;BME280_pressure;Samples;Min_cycle;Max_cycle;Signal;HPM_P1;HPM_P2
2022/12/10 00:00:26;;;;;;;11.15;5.72;;;;;;;-1.44;85.93;100603.25;10608504;28;20055;-83
2022/12/10 00:05:28;;;;;;;12.90;6.63;;;;;;;-1.39;85.39;100614.25;10596914;28;20032;-83
2022/12/10 00:10:30;;;;;;;14.63;7.15;;;;;;;-1.42;85.30;100611.09;10613868;28;20505;-83
2022/12/10 00:15:36;;;;;;;13.73;7.32;;;;;;;-1.67;85.06;100624.28;10607197;28;20055;-83
2022/12/10 00:20:39;;;;;;;15.43;7.38;;;;;;;-1.48;85.62;100630.75;10609402;28;20490;-83
2022/12/10 00:25:41;;;;;;;15.88;8.00;;;;;;;-1.53;85.76;100639.44;10611854;28;20498;-83
2022/12/10 00:30:43;;;;;;;16.92;7.90;;;;;;;-1.48;85.34;100646.91;10614986;28;20137;-83
2022/12/10 00:35:46;;;;;;;11.75;6.50;;;;;;;-1.73;85.14;100660.06;10596327;28;20058;-83
2022/12/10 00:40:48;;;;;;;14.60;7.22;;;;;;;-1.68;85.67;100661.13;10614175;28;20531;-84
2022/12/10 00:45:50;;;;;;;13.65;7.00;;;;;;;-1.65;85.63;100663.41;10612833;28;20039;-83
2022/12/10 00:51:14;;;;;;;14.40;6.78;;;;;;;-1.66;85.47;100667.13;10611731;28;20047;-83
2022/12/10 00:56:20;;;;;;;15.25;7.00;;;;;;;-1.60;85.58;100678.94;10595848;28;20031;-83
2022/12/10 01:01:25;;;;;;;13.15;6.18;;;;;;;-1.39;85.70;100683.38;10613386;28;20047;-82
2022/12/10 01:06:33;;;;;;;11.95;6.05;;;;;;;-1.39;85.27;100689.59;10613243;28;20047;-83
2022/12/10 01:11:38;;;;;;;13.57;6.88;;;;;;;-1.56;84.93;100693.69;10612439;28;20039;-83
2022/12/10 01:16:41;;;;;;;14.18;6.35;;;;;;;-1.44;85.22;100691.22;10611912;28;20057;-83
2022/12/10 01:21:43;;;;;;;9.70;5.38;;;;;;;-1.38;84.96;100695.81;10612146;28;20059;-83
2022/12/10 01:26:45;;;;;;;10.30;6.13;;;;;;;-1.36;84.86;100694.59;10611194;28;20051;-84
2022/12/10 01:31:51;;;;;;;8.30;5.20;;;;;;;-1.31;84.86;100705.56;10610933;28;20537;-83
2022/12/10 01:36:54;;;;;;;9.48;5.25;;;;;;;-1.38;84.09;100699.34;10615230;27;20373;-83
2022/12/10 01:41:58;;;;;;;9.00;4.53;;;;;;;-1.51;84.17;100693.91;10593998;28;20421;-83
2022/12/10 01:47:00;;;;;;;7.45;4.45;;;;;;;-1.66;83.86;100699.41;10611402;28;20405;-83
2022/12/10 01:52:05;;;;;;;10.38;4.82;;;;;;;-1.65;83.89;100701.06;10578497;28;20442;-83
2022/12/10 01:57:19;;;;;;;9.13;4.70;;;;;;;-1.76;84.27;100711.56;10592879;28;20046;-83
2022/12/10 02:02:28;;;;;;;8.68;4.82;;;;;;;-1.84;84.57;100716.09;10591009;28;20056;-83
2022/12/10 02:07:36;;;;;;;8.02;3.97;;;;;;;-1.82;85.30;100714.03;10612873;28;20043;-83
2022/12/10 02:12:42;;;;;;;8.07;4.60;;;;;;;-1.75;85.11;100713.22;10593943;28;20521;-83
2022/12/10 02:17:56;;;;;;;7.80;4.60;;;;;;;-1.86;84.68;100725.38;10593004;28;20032;-83
2022/12/10 02:23:16;;;;;;;7.50;4.65;;;;;;;-2.27;85.14;100715.38;10592511;28;20436;-84
2022/12/10 02:28:41;;;;;;;7.35;4.20;;;;;;;-2.14;85.76;100723.53;10576877;28;20054;-83
2022/12/10 02:33:49;;;;;;;8.25;4.93;;;;;;;-2.20;85.71;100710.91;10593130;28;20257;-83
2022/12/10 02:38:52;;;;;;;7.78;4.15;;;;;;;-2.13;86.05;100714.44;10541886;28;20066;-83
2022/12/10 02:43:58;;;;;;;7.50;4.43;;;;;;;-2.00;85.59;100712.88;10593303;27;20035;-83
2022/12/10 02:49:02;;;;;;;9.48;5.20;;;;;;;-1.80;85.46;100721.88;10643671;27;20039;-82
2022/12/10 02:54:33;;;;;;;8.40;4.85;;;;;;;-1.82;85.11;100726.63;10610185;27;20424;-83
2022/12/10 02:59:50;;;;;;;6.88;3.85;;;;;;;-2.15;84.25;100732.63;10629335;27;20042;-82
2022/12/10 03:04:58;;;;;;;6.97;4.40;;;;;;;-2.15;84.73;100729.94;10618237;28;20054;-83
2022/12/10 03:10:28;;;;;;;7.75;4.60;;;;;;;-2.31;85.30;100735.59;10599588;27;20721;-82
2022/12/10 03:15:34;;;;;;;7.95;4.43;;;;;;;-2.16;85.31;100739.03;10590085;28;20430;-83
2022/12/10 03:20:42;;;;;;;6.60;4.07;;;;;;;-2.39;85.34;100748.38;10600854;28;20040;-84
2022/12/10 03:25:48;;;;;;;8.98;5.22;;;;;;;-2.27;85.21;100744.09;10558293;28;20048;-84
2022/12/10 03:30:51;;;;;;;6.90;4.13;;;;;;;-2.17;85.38;100761.56;10585433;27;20044;-83
2022/12/10 03:35:54;;;;;;;7.25;4.43;;;;;;;-2.02;84.83;100757.97;10575958;28;20044;-84
2022/12/10 03:40:56;;;;;;;6.47;4.20;;;;;;;-2.22;84.97;100764.03;10575972;28;20048;-83
2022/12/10 03:45:58;;;;;;;7.00;4.07;;;;;;;-2.29;85.03;100756.91;10590114;28;20040;-82
2022/12/10 03:51:00;;;;;;;6.75;4.25;;;;;;;-2.16;85.18;100765.91;10569242;28;20044;-82
2022/12/10 03:56:02;;;;;;;7.20;4.45;;;;;;;-2.31;85.23;100780.47;10616248;27;20413;-84
2022/12/10 04:01:05;;;;;;;8.30;5.10;;;;;;;-2.37;85.59;100775.88;10615930;28;20047;-84
2022/12/10 04:06:10;;;;;;;8.45;5.15;;;;;;;-2.40;85.70;100781.63;10591677;27;20047;-84
2022/12/10 04:11:13;;;;;;;9.93;4.85;;;;;;;-2.56;85.63;100788.94;10598630;27;20043;-84
2022/12/10 04:16:28;;;;;;;8.55;5.10;;;;;;;-2.48;86.15;100785.28;10596235;28;20032;-85
2022/12/10 04:26:55;;;;;;;8.70;5.15;;;;;;;-2.65;86.33;100802.66;10559307;28;20047;-84
2022/12/10 04:31:58;;;;;;;6.85;4.80;;;;;;;-2.54;86.95;100803.00;10572998;28;20440;-83
2022/12/10 04:37:01;;;;;;;7.05;4.28;;;;;;;-2.35;86.67;100804.22;10589375;27;20047;-84
2022/12/10 04:42:03;;;;;;;7.47;4.85;;;;;;;-2.23;86.11;100804.53;10579597;28;20047;-84
2022/12/10 04:47:07;;;;;;;8.23;4.55;;;;;;;-2.31;85.85;100810.03;10614430;28;20039;-84
2022/12/10 04:52:11;;;;;;;9.02;5.10;;;;;;;-2.19;85.88;100803.94;10596219;28;20040;-84
2022/12/10 04:57:14;;;;;;;9.30;5.40;;;;;;;-2.19;85.64;100812.00;10594126;28;20031;-84
2022/12/10 05:02:16;;;;;;;10.18;5.32;;;;;;;-2.30;85.79;100825.13;10612498;28;20051;-84
2022/12/10 05:07:18;;;;;;;12.57;6.25;;;;;;;-2.47;85.29;100824.56;10630254;27;20066;-84
2022/12/10 05:12:20;;;;;;;11.05;5.88;;;;;;;-2.44;86.07;100818.78;10603178;27;20046;-84
2022/12/10 05:17:22;;;;;;;10.57;6.03;;;;;;;-2.53;86.25;100833.38;10619775;27;20043;-84
2022/12/10 05:27:49;;;;;;;13.02;6.53;;;;;;;-2.50;86.47;100841.06;10612437;28;20047;-84
2022/12/10 05:32:52;;;;;;;13.55;6.68;;;;;;;-2.59;86.72;100831.47;10612238;27;20516;-84
2022/12/10 05:37:58;;;;;;;16.13;7.60;;;;;;;-2.87;86.58;100839.41;10611661;28;20036;-83
2022/12/10 05:43:05;;;;;;;19.20;8.47;;;;;;;-3.09;86.99;100841.22;10606780;28;20453;-84
2022/12/10 05:48:12;;;;;;;16.13;8.07;;;;;;;-3.17;87.92;100846.66;10593634;28;20035;-84
2022/12/10 05:53:14;;;;;;;16.35;8.32;;;;;;;-3.15;88.57;100848.13;10607845;28;20043;-83
2022/12/10 05:58:16;;;;;;;17.40;8.55;;;;;;;-3.20;88.55;100841.69;10610963;28;20048;-83
2022/12/10 06:03:18;;;;;;;18.63;8.65;;;;;;;-3.34;89.56;100849.53;10623093;28;20046;-84
2022/12/10 06:08:25;;;;;;;16.13;8.00;;;;;;;-3.40;89.57;100842.25;10611407;28;20378;-83
2022/12/10 06:13:27;;;;;;;16.20;8.80;;;;;;;-3.43;90.17;100844.47;10595925;28;20047;-83
2022/12/10 06:18:29;;;;;;;13.70;7.45;;;;;;;-3.39;90.72;100843.91;10619386;28;20047;-84
2022/12/10 06:23:33;;;;;;;12.45;6.85;;;;;;;-3.40;90.65;100855.66;10619898;28;20043;-84
2022/12/10 06:28:37;;;;;;;15.27;7.22;;;;;;;-3.43;90.89;100853.34;10614243;27;20402;-84
2022/12/10 06:34:08;;;;;;;14.35;5.88;;;;;;;-3.50;91.35;100865.81;10630646;27;20798;-83
2022/12/10 06:39:14;;;;;;;16.92;8.02;;;;;;;-3.49;91.21;100866.66;10640189;27;20047;-84
2022/12/10 06:44:20;;;;;;;18.05;8.13;;;;;;;-3.50;90.98;100871.19;10637625;27;20040;-83
2022/12/10 06:49:22;;;;;;;19.98;9.23;;;;;;;-3.52;91.71;100872.38;10624946;27;20422;-84
2022/12/10 06:54:24;;;;;;;21.67;10.10;;;;;;;-3.63;91.59;100879.06;10626550;27;20049;-85
2022/12/10 06:59:26;;;;;;;20.35;9.63;;;;;;;-3.71;91.23;100871.06;10577613;28;20401;-84
2022/12/10 07:04:29;;;;;;;20.10;10.48;;;;;;;-3.74;91.30;100884.84;10615060;28;20039;-83
2022/12/10 07:09:35;;;;;;;21.02;8.98;;;;;;;-3.72;92.23;100894.38;10616008;27;20043;-83
2022/12/10 07:14:37;;;;;;;18.45;7.57;;;;;;;-3.85;92.01;100885.28;10599234;27;20062;-83
2022/12/10 07:19:39;;;;;;;18.02;8.50;;;;;;;-3.98;92.22;100892.09;10613189;28;20039;-83
2022/12/10 07:24:41;;;;;;;22.55;10.43;;;;;;;-4.04;92.17;100890.13;10613118;28;20043;-84
2022/12/10 07:29:44;;;;;;;25.08;11.70;;;;;;;-4.03;92.64;100891.78;10613590;27;20039;-83
2022/12/10 07:34:46;;;;;;;25.52;11.43;;;;;;;-4.00;92.61;100910.19;10614784;28;20060;-83
2022/12/10 07:39:48;;;;;;;28.35;12.45;;;;;;;-3.95;92.82;100910.50;10614155;28;20556;-83
2022/12/10 07:44:50;;;;;;;27.35;11.48;;;;;;;-4.00;93.56;100917.38;10612483;27;20050;-84
2022/12/10 07:49:53;;;;;;;23.58;11.10;;;;;;;-4.09;93.31;100919.31;10590157;28;20035;-83
2022/12/10 07:54:55;;;;;;;21.25;9.60;;;;;;;-4.27;94.15;100932.16;10613660;27;20066;-83
2022/12/10 07:59:58;;;;;;;17.58;9.15;;;;;;;-4.29;93.80;100928.84;10612048;27;20040;-83
2022/12/10 08:05:00;;;;;;;18.35;9.38;;;;;;;-4.33;93.87;100938.25;10612613;28;20040;-84
2022/12/10 08:10:03;;;;;;;21.48;9.27;;;;;;;-4.39;94.01;100949.66;10612617;27;20038;-84
2022/12/10 08:15:06;;;;;;;23.02;8.77;;;;;;;-4.41;94.15;100938.28;10609714;27;20036;-83
2022/12/10 08:20:08;;;;;;;17.98;7.78;;;;;;;-4.42;94.87;100934.75;10610428;27;20059;-83
2022/12/10 08:25:10;;;;;;;16.27;8.55;;;;;;;-4.44;94.62;100935.97;10611097;28;20031;-84
2022/12/10 08:30:13;;;;;;;18.13;8.90;;;;;;;-4.49;95.06;100930.31;10612172;27;20043;-83
2022/12/10 08:35:15;;;;;;;20.77;9.57;;;;;;;-4.49;94.73;100930.31;10636823;27;20509;-84
2022/12/10 08:40:17;;;;;;;17.33;8.40;;;;;;;-4.59;95.04;100936.69;10628476;27;20043;-85
2022/12/10 08:45:20;;;;;;;16.83;8.60;;;;;;;-4.58;95.21;100938.38;10657404;27;20039;-84
2022/12/10 08:50:22;;;;;;;14.30;7.25;;;;;;;-4.60;95.00;100947.59;10622280;27;20050;-84
2022/12/10 08:55:24;;;;;;;15.30;8.18;;;;;;;-4.66;95.10;100954.47;10595791;28;20047;-84
2022/12/10 09:00:26;;;;;;;15.05;7.95;;;;;;;-4.63;95.14;100953.28;10621565;27;20035;-85
2022/12/10 09:05:28;;;;;;;17.13;7.80;;;;;;;-4.57;95.04;100956.09;10647782;27;20050;-85
2022/12/10 09:10:31;;;;;;;15.48;7.45;;;;;;;-4.34;95.00;100960.66;10644814;27;20043;-84
2022/12/10 09:15:33;;;;;;;15.32;8.60;;;;;;;-4.41;95.20;100957.03;10638849;27;20059;-84
2022/12/10 09:20:36;;;;;;;16.15;8.02;;;;;;;-4.39;95.25;100961.19;10627725;27;20409;-85
2022/12/10 09:25:39;;;;;;;13.15;8.43;;;;;;;-4.45;95.02;100955.72;10646922;27;20413;-84
2022/12/10 09:30:41;;;;;;;13.98;8.32;;;;;;;-4.52;95.06;100968.97;10626281;27;20039;-84
2022/12/10 09:35:43;;;;;;;16.50;8.80;;;;;;;-4.65;94.56;100960.66;10611876;27;20506;-84
2022/12/10 09:41:01;;;;;;;15.55;8.98;;;;;;;-4.71;94.51;100964.84;10602119;27;20050;-84
2022/12/10 09:46:25;;;;;;;16.10;8.07;;;;;;;-4.74;94.65;100967.88;10617292;27;20040;-83
2022/12/10 09:51:30;;;;;;;20.08;10.88;;;;;;;-4.80;93.98;100973.94;10602123;27;20055;-84
2022/12/10 09:56:35;;;;;;;17.30;9.50;;;;;;;-4.96;94.33;100974.00;10605900;28;20034;-84
2022/12/10 10:01:38;;;;;;;19.52;9.27;;;;;;;-5.00;93.82;100972.69;10619783;28;20079;-84
2022/12/10 10:06:41;;;;;;;16.17;9.20;;;;;;;-4.96;93.92;100968.66;10613151;28;20039;-83
2022/12/10 10:11:44;;;;;;;15.90;9.55;;;;;;;-5.00;94.24;100956.63;10633840;28;20043;-84
2022/12/10 10:17:00;;;;;;;17.23;9.70;;;;;;;-4.96;94.32;100960.63;10598427;28;20044;-79
2022/12/10 10:22:03;;;;;;;17.83;9.38;;;;;;;-4.91;94.67;100966.28;10585316;28;20040;-79
2022/12/10 10:27:20;;;;;;;23.88;10.57;;;;;;;-4.90;94.33;100971.44;10591447;28;20039;-80
2022/12/10 10:32:28;;;;;;;24.42;11.40;;;;;;;-4.86;94.56;100975.47;10580560;28;22748;-80
2022/12/10 10:37:41;;;;;;;22.08;11.43;;;;;;;-4.83;94.89;100985.00;10613116;28;20038;-83
2022/12/10 10:42:45;;;;;;;22.10;12.32;;;;;;;-4.87;95.06;100986.34;10617439;28;20055;-80
2022/12/10 10:47:47;;;;;;;20.77;11.65;;;;;;;-5.00;95.16;100999.44;10617538;28;20055;-80
2022/12/10 10:52:49;;;;;;;16.08;9.77;;;;;;;-5.12;95.19;100990.94;10620556;28;20047;-80
2022/12/10 10:57:52;;;;;;;16.60;9.20;;;;;;;-5.14;95.13;100986.75;10616553;28;20046;-80
2022/12/10 11:02:54;;;;;;;17.13;10.32;;;;;;;-5.12;95.07;101001.63;10629585;27;20035;-81
2022/12/10 11:07:59;;;;;;;16.35;9.38;;;;;;;-5.20;95.48;100999.81;10627682;27;20043;-85
2022/12/10 11:13:03;;;;;;;14.13;8.65;;;;;;;-5.24;95.52;101011.00;10638434;27;20046;-82
2022/12/10 11:18:24;;;;;;;12.65;8.57;;;;;;;-5.24;95.46;101005.66;10638858;27;20035;-83
2022/12/10 11:23:32;;;;;;;15.00;8.32;;;;;;;-5.24;95.11;101013.69;10629412;27;20508;-83
2022/12/10 11:28:52;;;;;;;12.15;6.97;;;;;;;-5.28;95.38;101004.31;10589424;28;20070;-83
2022/12/10 11:33:57;;;;;;;12.38;7.28;;;;;;;-5.29;95.51;100999.97;10643012;27;20528;-84
2022/12/10 11:39:17;;;;;;;14.90;8.90;;;;;;;-5.28;95.10;101007.00;10649949;27;20043;-84
2022/12/10 11:44:50;;;;;;;13.52;7.20;;;;;;;-5.28;95.25;101002.47;10580001;28;20055;-85
2022/12/10 11:50:02;;;;;;;10.65;7.72;;;;;;;-5.26;95.46;101003.16;10604243;27;20043;-84
2022/12/10 11:55:17;;;;;;;11.25;6.53;;;;;;;-5.33;95.41;101009.34;10638331;27;20058;-85
2022/12/10 12:00:22;;;;;;;10.20;5.88;;;;;;;-5.37;95.18;101014.22;10597493;28;20044;-83
2022/12/10 12:05:27;;;;;;;12.68;6.80;;;;;;;-5.31;95.05;101013.53;10620845;27;20046;-86
2022/12/10 12:10:38;;;;;;;11.95;7.30;;;;;;;-5.25;95.53;101012.84;10625210;27;20506;-85
2022/12/10 12:15:54;;;;;;;10.82;7.13;;;;;;;-5.24;95.28;101006.47;10621967;27;20043;-85
2022/12/10 12:20:58;;;;;;;11.13;6.50;;;;;;;-5.24;95.38;101011.84;10587808;27;20405;-86
2022/12/10 12:26:05;;;;;;;11.63;6.50;;;;;;;-5.25;95.44;101020.88;10625204;27;20040;-86
2022/12/10 12:31:27;;;;;;;9.57;5.82;;;;;;;-5.27;95.38;101022.03;10608184;27;20065;-85
2022/12/10 12:36:34;;;;;;;12.57;6.97;;;;;;;-5.31;95.00;101021.56;10556753;28;20047;-85
2022/12/10 12:41:50;;;;;;;12.25;6.57;;;;;;;-5.21;95.19;101024.91;10579743;27;20040;-85
2022/12/10 12:46:52;;;;;;;10.93;6.60;;;;;;;-5.28;95.08;101039.09;10601942;28;20036;-85
2022/12/10 12:52:05;;;;;;;12.13;7.80;;;;;;;-5.26;95.50;101045.09;10619236;28;20036;-85
2022/12/10 12:57:16;;;;;;;12.68;7.47;;;;;;;-5.29;95.53;101054.31;10616454;28;20036;-84
2022/12/10 13:02:45;;;;;;;10.00;7.20;;;;;;;-5.37;95.61;101061.50;10583794;27;20062;-86
2022/12/10 13:08:15;;;;;;;10.38;6.00;;;;;;;-5.49;95.56;101053.81;10597305;27;20040;-85
2022/12/10 13:13:32;;;;;;;11.52;6.70;;;;;;;-5.52;96.55;101062.19;10611693;28;20044;-85
2022/12/10 13:18:37;;;;;;;11.98;6.55;;;;;;;-5.48;96.18;101055.47;10611552;27;20040;-85
2022/12/10 13:23:51;;;;;;;10.05;6.68;;;;;;;-5.38;96.08;101063.34;10607280;28;20050;-85
2022/12/10 13:28:55;;;;;;;10.05;6.28;;;;;;;-5.36;96.73;101058.66;10605821;28;20039;-85
2022/12/10 13:34:00;;;;;;;9.82;5.43;;;;;;;-5.33;96.49;101057.50;10603090;28;20044;-85
2022/12/10 13:39:07;;;;;;;10.15;7.03;;;;;;;-5.33;97.04;101060.16;10608426;28;20043;-85
2022/12/10 13:44:54;;;;;;;11.18;6.90;;;;;;;-5.36;96.39;101064.03;10608715;28;20512;-85
2022/12/10 13:50:07;;;;;;;10.82;7.18;;;;;;;-5.32;96.54;101051.97;10567858;28;20083;-84
2022/12/10 13:55:23;;;;;;;9.73;5.90;;;;;;;-5.30;96.80;101058.00;10573463;28;20027;-85
2022/12/10 14:00:38;;;;;;;9.98;5.85;;;;;;;-5.26;96.83;101053.13;10577456;28;20044;-85
2022/12/10 14:05:59;;;;;;;6.70;4.88;;;;;;;-5.34;97.11;101067.34;10589700;28;20052;-85
2022/12/10 14:11:02;;;;;;;8.57;5.88;;;;;;;-5.43;96.60;101068.34;10606973;28;20043;-85
2022/12/10 14:16:06;;;;;;;8.13;5.40;;;;;;;-5.40;96.99;101072.53;10586291;28;20042;-83
2022/12/10 14:21:08;;;;;;;9.52;5.78;;;;;;;-5.38;97.09;101071.38;10597463;28;20043;-82
2022/12/10 14:26:20;;;;;;;12.00;6.45;;;;;;;-5.35;97.19;101057.66;10596329;28;20050;-82
2022/12/10 14:31:34;;;;;;;10.20;6.13;;;;;;;-5.26;97.12;101072.69;10596311;28;20027;-79
2022/12/10 14:36:39;;;;;;;9.10;6.25;;;;;;;-5.23;97.40;101076.88;10579087;28;20051;-78
2022/12/10 14:41:42;;;;;;;8.43;5.57;;;;;;;-5.22;97.43;101075.88;10612564;27;20051;-79
2022/12/10 14:46:47;;;;;;;8.52;6.05;;;;;;;-5.21;97.24;101083.75;10621220;27;20035;-78
2022/12/10 14:51:49;;;;;;;8.25;5.60;;;;;;;-5.24;97.78;101078.72;10603764;27;20036;-78
2022/12/10 14:56:52;;;;;;;8.48;5.90;;;;;;;-5.29;97.88;101082.91;10619083;27;20040;-77
2022/12/10 15:01:58;;;;;;;8.32;5.35;;;;;;;-5.46;97.76;101082.88;10613637;28;20035;-78
2022/12/10 15:07:01;;;;;;;7.80;5.10;;;;;;;-5.54;97.75;101082.91;10612829;28;20039;-80
2022/12/10 15:12:04;;;;;;;6.75;4.40;;;;;;;-5.53;97.51;101094.44;10615117;28;20043;-79
2022/12/10 15:17:36;;;;;;;7.03;5.40;;;;;;;-5.50;97.55;101091.41;10616363;28;20043;-80
2022/12/10 15:22:39;;;;;;;6.72;5.22;;;;;;;-5.52;97.50;101096.09;10599222;28;20391;-79
2022/12/10 15:27:52;;;;;;;8.10;5.32;;;;;;;-5.53;98.04;101081.91;10616202;27;20715;-78
2022/12/10 15:32:55;;;;;;;6.35;4.72;;;;;;;-5.50;98.20;101083.41;10614747;28;20044;-78
2022/12/10 15:37:59;;;;;;;7.25;4.82;;;;;;;-5.52;97.94;101074.72;10581905;28;20042;-79
2022/12/10 15:43:33;;;;;;;6.65;4.60;;;;;;;-5.53;98.02;101089.91;10620139;27;20044;-79
2022/12/10 15:48:35;;;;;;;6.45;5.05;;;;;;;-5.56;98.04;101074.19;10574951;27;20045;-78
2022/12/10 15:53:38;;;;;;;5.55;4.93;;;;;;;-5.57;97.94;101069.84;10622194;28;20047;-80
2022/12/10 15:58:41;;;;;;;7.40;4.55;;;;;;;-5.54;97.63;101068.69;10622111;27;20043;-79
2022/12/10 16:03:43;;;;;;;5.18;4.40;;;;;;;-5.51;98.04;101081.72;10623503;27;20131;-78
2022/12/10 16:08:46;;;;;;;5.95;4.60;;;;;;;-5.50;98.04;101062.84;10620819;28;20040;-77
2022/12/10 16:13:53;;;;;;;5.10;3.95;;;;;;;-5.45;97.59;101073.03;10615624;28;20039;-78
2022/12/10 16:18:55;;;;;;;5.70;4.35;;;;;;;-5.41;97.64;101073.53;10587280;28;20050;-79
2022/12/10 16:23:57;;;;;;;6.15;4.30;;;;;;;-5.38;97.58;101073.19;10620460;27;20413;-78
2022/12/10 16:28:59;;;;;;;6.75;4.90;;;;;;;-5.34;97.77;101079.91;10619207;28;20040;-79
2022/12/10 16:34:02;;;;;;;7.82;4.80;;;;;;;-5.31;97.53;101072.38;10628261;27;20398;-79
2022/12/10 16:39:05;;;;;;;6.75;5.10;;;;;;;-5.25;97.30;101065.50;10622447;27;20406;-79
2022/12/10 16:44:08;;;;;;;7.65;5.28;;;;;;;-5.20;97.29;101069.38;10622622;27;20047;-79
2022/12/10 16:49:10;;;;;;;7.70;5.18;;;;;;;-5.14;96.67;101067.84;10598372;27;20035;-79
2022/12/10 16:54:13;;;;;;;7.93;4.90;;;;;;;-5.11;96.86;101067.50;10618049;27;20035;-80
2022/12/10 16:59:16;;;;;;;7.15;5.55;;;;;;;-5.08;96.69;101079.72;10625846;27;20040;-80
2022/12/10 17:04:18;;;;;;;6.60;5.00;;;;;;;-5.09;96.45;101073.53;10599683;27;20058;-79
2022/12/10 17:09:21;;;;;;;6.32;4.75;;;;;;;-5.07;95.64;101078.69;10623866;27;20050;-80
2022/12/10 17:14:29;;;;;;;6.85;5.32;;;;;;;-5.03;95.05;101090.72;10602732;27;20046;-80
2022/12/10 17:19:34;;;;;;;7.60;5.05;;;;;;;-5.02;94.96;101079.06;10623788;27;20065;-81
2022/12/10 17:24:36;;;;;;;4.93;3.58;;;;;;;-5.03;94.90;101088.06;10611471;27;20051;-82
2022/12/10 17:29:41;;;;;;;6.40;4.80;;;;;;;-5.03;94.96;101082.69;10651334;27;20053;-80
2022/12/10 17:34:43;;;;;;;6.63;5.05;;;;;;;-5.05;94.99;101082.03;10617681;28;20035;-81
2022/12/10 17:39:46;;;;;;;8.38;5.35;;;;;;;-5.04;94.36;101086.38;10602330;27;20069;-82
2022/12/10 17:44:48;;;;;;;7.00;5.63;;;;;;;-4.98;93.63;101083.06;10617372;27;20484;-83
2022/12/10 17:49:50;;;;;;;8.60;5.78;;;;;;;-4.94;93.77;101095.91;10597152;27;20031;-82
2022/12/10 17:54:53;;;;;;;8.00;5.65;;;;;;;-4.95;94.00;101093.41;10634961;27;20448;-80
2022/12/10 17:59:55;;;;;;;6.60;4.97;;;;;;;-4.98;93.50;101101.78;10628325;28;20039;-79
2022/12/10 18:04:57;;;;;;;9.35;5.82;;;;;;;-5.00;93.72;101095.78;10622003;28;20051;-79
2022/12/10 18:10:00;;;;;;;6.15;4.82;;;;;;;-5.01;93.37;101102.13;10636783;27;20530;-78
2022/12/10 18:15:02;;;;;;;7.45;5.70;;;;;;;-5.05;93.17;101096.25;10623587;27;20046;-79
2022/12/10 18:20:07;;;;;;;8.02;5.32;;;;;;;-5.03;92.73;101099.63;10626360;27;20051;-79
2022/12/10 18:25:09;;;;;;;7.80;5.30;;;;;;;-5.02;92.89;101106.66;10609103;28;20043;-76
2022/12/10 18:30:17;;;;;;;9.15;5.30;;;;;;;-5.04;92.95;101103.28;10620816;27;20038;-78
2022/12/10 18:35:20;;;;;;;8.77;5.68;;;;;;;-5.00;92.55;101103.81;10628105;27;20521;-78
2022/12/10 18:40:22;;;;;;;8.93;6.07;;;;;;;-4.96;92.49;101105.97;10627931;27;20137;-79
2022/12/10 18:45:24;;;;;;;8.52;5.72;;;;;;;-4.93;92.29;101094.06;10599341;28;20043;-79
2022/12/10 18:50:29;;;;;;;11.77;6.70;;;;;;;-4.89;92.15;101112.28;10619894;27;20040;-78
2022/12/10 18:55:32;;;;;;;7.65;5.47;;;;;;;-4.91;92.16;101114.31;10614911;28;20035;-78
2022/12/10 19:00:34;;;;;;;7.45;5.55;;;;;;;-4.95;92.19;101112.16;10614779;27;20039;-78
2022/12/10 19:05:37;;;;;;;9.32;5.65;;;;;;;-4.96;91.56;101100.59;10636708;27;20051;-78
2022/12/10 19:10:39;;;;;;;8.25;5.28;;;;;;;-4.95;91.92;101093.41;10619649;27;20036;-77
2022/12/10 19:15:41;;;;;;;7.43;5.47;;;;;;;-4.93;91.69;101096.75;10594236;28;20041;-77
2022/12/10 19:20:43;;;;;;;10.18;6.22;;;;;;;-4.89;91.61;101090.88;10629280;27;20046;-79
2022/12/10 19:25:46;;;;;;;10.27;6.60;;;;;;;-4.85;91.84;101094.09;10616188;27;20509;-78
2022/12/10 19:30:49;;;;;;;10.45;6.13;;;;;;;-4.80;91.46;101096.25;10600308;27;20049;-79
2022/12/10 19:35:51;;;;;;;8.15;5.68;;;;;;;-4.81;90.89;101094.56;10607424;27;20228;-82
2022/12/10 19:40:53;;;;;;;9.30;6.63;;;;;;;-4.82;90.76;101088.38;10629815;27;20051;-82
2022/12/10 19:45:56;;;;;;;8.85;5.65;;;;;;;-4.80;90.35;101090.88;10618255;27;20042;-82
2022/12/10 19:50:58;;;;;;;9.27;6.07;;;;;;;-4.78;89.83;101081.69;10617382;27;20586;-81
2022/12/10 19:56:00;;;;;;;9.35;6.38;;;;;;;-4.76;89.61;101092.22;10587617;28;20055;-82
2022/12/10 20:01:05;;;;;;;7.57;5.03;;;;;;;-4.79;88.34;101096.06;10618801;27;20378;-81
2022/12/10 20:06:17;;;;;;;9.00;6.32;;;;;;;-4.76;88.34;101101.09;10625176;27;20047;-83
2022/12/10 20:11:19;;;;;;;7.40;5.68;;;;;;;-4.74;87.48;101098.22;10647797;27;20043;-83
2022/12/10 20:16:28;;;;;;;8.00;5.28;;;;;;;-4.77;88.15;101096.72;10618268;27;20047;-83
2022/12/10 20:21:30;;;;;;;5.82;4.35;;;;;;;-4.72;87.76;101110.44;10565973;28;20044;-82
2022/12/10 20:26:39;;;;;;;7.03;6.05;;;;;;;-4.75;88.54;101115.31;10608932;27;20051;-80
2022/12/10 20:31:41;;;;;;;7.85;5.10;;;;;;;-4.82;88.38;101101.78;10609375;27;20054;-81
2022/12/10 20:36:44;;;;;;;9.20;6.15;;;;;;;-4.87;87.26;101112.97;10602840;28;20039;-81
2022/12/10 20:41:47;;;;;;;6.13;5.10;;;;;;;-4.90;87.53;101110.63;10626467;28;20055;-82
2022/12/10 20:46:50;;;;;;;6.38;4.28;;;;;;;-4.96;87.61;101111.31;10589228;28;20052;-81
2022/12/10 20:51:53;;;;;;;4.90;3.70;;;;;;;-5.01;87.98;101102.13;10631997;27;20050;-81
2022/12/10 20:56:58;;;;;;;5.85;4.03;;;;;;;-5.04;87.74;101113.16;10607926;28;20039;-82
2022/12/10 21:02:01;;;;;;;4.45;3.72;;;;;;;-5.08;87.58;101107.28;10628325;27;20058;-82
2022/12/10 21:07:03;;;;;;;5.20;3.88;;;;;;;-5.11;87.96;101125.53;10611257;27;20050;-81
2022/12/10 21:12:05;;;;;;;5.07;3.50;;;;;;;-5.14;87.57;101116.00;10623713;28;20043;-82
2022/12/10 21:17:10;;;;;;;7.65;3.35;;;;;;;-5.19;87.27;101118.34;10625153;27;20043;-82
2022/12/10 21:22:16;;;;;;;5.03;3.08;;;;;;;-5.21;87.48;101128.34;10618729;27;20125;-82
2022/12/10 21:27:22;;;;;;;3.75;3.05;;;;;;;-5.20;87.54;101141.59;10632988;27;20038;-81
2022/12/10 21:32:28;;;;;;;5.22;3.55;;;;;;;-5.25;87.76;101125.19;10620615;27;20047;-81
2022/12/10 21:37:31;;;;;;;6.20;3.75;;;;;;;-5.23;87.99;101146.41;10649341;27;20036;-82
2022/12/10 21:47:55;;;;;;;5.53;4.10;;;;;;;-5.27;87.51;101143.25;10622228;28;20036;-78
2022/12/10 21:52:58;;;;;;;5.55;3.60;;;;;;;-5.24;87.38;101139.41;10641854;27;20035;-79
2022/12/10 21:58:00;;;;;;;4.20;2.58;;;;;;;-5.23;87.00;101146.41;10629696;28;20043;-80
2022/12/10 22:03:27;;;;;;;3.00;2.63;;;;;;;-5.25;87.64;101141.22;10628836;28;20035;-82
2022/12/10 22:08:35;;;;;;;6.10;3.58;;;;;;;-5.25;87.33;101138.56;10642020;28;20544;-81
2022/12/10 22:13:41;;;;;;;6.25;3.63;;;;;;;-5.21;87.73;101134.56;10624348;28;20031;-80
2022/12/10 22:18:44;;;;;;;3.28;2.38;;;;;;;-5.19;87.39;101126.38;10632209;28;20040;-80
2022/12/10 22:23:46;;;;;;;5.07;3.08;;;;;;;-5.20;88.13;101112.16;10607351;28;20043;-81
2022/12/10 22:28:49;;;;;;;5.20;3.50;;;;;;;-5.19;87.72;101113.00;10619831;28;20047;-82
2022/12/10 22:33:52;;;;;;;7.35;3.63;;;;;;;-5.16;87.78;101121.53;10622876;28;20525;-77
2022/12/10 22:39:19;;;;;;;6.72;3.90;;;;;;;-5.17;88.34;101143.94;10623358;28;20047;-77
2022/12/10 22:44:22;;;;;;;4.30;3.30;;;;;;;-5.20;88.03;101133.56;10631940;28;20057;-78
2022/12/10 22:49:24;;;;;;;4.45;2.45;;;;;;;-5.27;88.07;101124.53;10604902;28;20501;-79
2022/12/10 22:54:26;;;;;;;5.07;3.53;;;;;;;-5.24;87.51;101132.22;10628094;28;20035;-78
2022/12/10 22:59:29;;;;;;;4.63;3.33;;;;;;;-5.25;86.92;101130.53;10652793;27;20043;-83
2022/12/10 23:04:56;;;;;;;4.13;2.95;;;;;;;-5.27;87.66;101124.53;10641949;27;20055;-79
2022/12/10 23:09:58;;;;;;;3.97;3.15;;;;;;;-5.27;87.64;101124.53;10648309;27;20432;-79
2022/12/10 23:15:00;;;;;;;4.60;3.47;;;;;;;-5.24;86.71;101126.84;10645845;27;20040;-80
2022/12/10 23:20:03;;;;;;;4.72;3.13;;;;;;;-5.24;87.05;101118.84;10647643;27;20493;-79
2022/12/10 23:25:06;;;;;;;5.32;3.90;;;;;;;-5.24;86.99;101137.56;10647230;27;20058;-79
2022/12/10 23:30:10;;;;;;;6.72;3.50;;;;;;;-5.23;86.69;101123.19;10597088;28;20035;-79
2022/12/10 23:35:12;;;;;;;4.13;3.35;;;;;;;-5.22;86.29;101129.38;10633780;27;20046;-79